Time,TemperatureF,DewpointF,PressureIn,WindDirection,WindDirectionDegrees,WindSpeedMPH,WindSpeedGustMPH,Humidity,HourlyPrecipIn,Conditions,Clouds,dailyrainin,SoftwareType,DateUTC
2013-02-23 00:00:00,34.5,26.1,30.14,SW,221,0.0,0.0,71,0.00,,,0.00,VWS V14.00,2013-02-23 05:00:00,
2013-02-23 00:05:00,34.5,26.4,30.14,SW,220,0.0,0.0,72,0.00,,,0.00,VWS V14.00,2013-02-23 05:05:00,
2013-02-23 00:10:00,34.5,26.8,30.14,SW,220,0.0,0.0,73,0.00,,,0.00,VWS V14.00,2013-02-23 05:10:00,
2013-02-23 00:15:00,34.3,26.6,30.14,SW,220,0.0,0.0,73,0.00,,,0.00,VWS V14.00,2013-02-23 05:15:00,
2013-02-23 00:20:00,34.3,26.6,30.14,SW,220,0.0,0.0,73,0.00,,,0.00,VWS V14.00,2013-02-23 05:20:00,
2013-02-23 00:25:00,34.3,26.6,30.14,SW,220,0.0,0.0,73,0.00,,,0.00,VWS V14.00,2013-02-23 05:25:00,
2013-02-23 00:30:00,34.3,26.6,30.14,SW,220,0.0,0.0,73,0.00,,,0.00,VWS V14.00,2013-02-23 05:30:00,
2013-02-23 00:35:00,34.5,27.1,30.14,SW,220,0.0,0.0,74,0.00,,,0.00,VWS V14.00,2013-02-23 05:35:00,
2013-02-23 00:40:00,34.3,26.9,30.14,SW,220,0.0,0.0,74,0.00,,,0.00,VWS V14.00,2013-02-23 05:40:00,
2013-02-23 00:45:00,34.3,26.9,30.14,SW,221,0.0,0.0,74,0.00,,,0.00,VWS V14.00,2013-02-23 05:45:00,
2013-02-23 00:50:00,34.5,27.1,30.14,SW,220,0.0,0.0,74,0.00,,,0.00,VWS V14.00,2013-02-23 05:50:00,
2013-02-23 00:55:00,34.5,27.1,30.14,SW,221,0.0,0.0,74,0.00,,,0.00,VWS V14.00,2013-02-23 05:55:00,
2013-02-23 01:00:00,34.3,27.2,30.14,SW,221,0.0,0.0,75,0.00,,,0.00,VWS V14.00,2013-02-23 06:00:00,
2013-02-23 01:06:00,34.3,27.2,30.14,SW,220,0.0,0.0,75,0.00,,,0.00,VWS V14.00,2013-02-23 06:06:00,
2013-02-23 01:11:00,34.3,27.2,30.14,SW,221,0.0,0.0,75,0.00,,,0.00,VWS V14.00,2013-02-23 06:11:00,
2013-02-23 01:16:00,34.3,27.2,30.14,SW,220,0.0,0.0,75,0.00,,,0.00,VWS V14.00,2013-02-23 06:16:00,
2013-02-23 01:21:00,34.5,27.4,30.17,SW,221,0.0,0.0,75,0.00,,,0.00,VWS V14.00,2013-02-23 06:21:00,
2013-02-23 01:26:00,34.3,27.2,30.17,SW,220,0.0,0.0,75,0.00,,,0.00,VWS V14.00,2013-02-23 06:26:00,
2013-02-23 01:31:00,34.5,27.4,30.17,SW,220,0.0,0.0,75,0.00,,,0.00,VWS V14.00,2013-02-23 06:31:00,
2013-02-23 01:36:00,34.3,27.2,30.14,SW,221,0.0,0.0,75,0.00,,,0.00,VWS V14.00,2013-02-23 06:36:00,
2013-02-23 01:41:00,34.3,27.6,30.14,SW,220,0.0,0.0,76,0.00,,,0.00,VWS V14.00,2013-02-23 06:41:00,
2013-02-23 01:46:00,34.3,27.6,30.14,SW,220,0.0,0.0,76,0.00,,,0.00,VWS V14.00,2013-02-23 06:46:00,
2013-02-23 01:51:00,34.5,27.8,30.14,SW,220,0.0,0.0,76,0.00,,,0.00,VWS V14.00,2013-02-23 06:51:00,
2013-02-23 01:56:00,34.5,27.8,30.14,SW,220,0.0,0.0,76,0.00,,,0.00,VWS V14.00,2013-02-23 06:56:00,
2013-02-23 02:01:00,34.5,27.8,30.14,SW,220,0.0,0.0,76,0.00,,,0.00,VWS V14.00,2013-02-23 07:01:00,
2013-02-23 02:06:00,34.5,27.8,30.14,SW,220,0.0,0.0,76,0.00,,,0.00,VWS V14.00,2013-02-23 07:06:00,
2013-02-23 02:11:00,34.5,27.8,30.14,SW,220,0.0,0.0,76,0.00,,,0.00,VWS V14.00,2013-02-23 07:11:00,
2013-02-23 02:16:00,34.3,27.6,30.14,SW,220,2.2,2.7,76,0.00,,,0.00,VWS V14.00,2013-02-23 07:16:00,
2013-02-23 02:21:00,34.3,27.9,30.11,SW,221,2.2,2.7,77,0.00,,,0.00,VWS V14.00,2013-02-23 07:21:00,
2013-02-23 02:26:00,34.3,27.9,30.11,SW,222,0.0,0.0,77,0.00,,,0.00,VWS V14.00,2013-02-23 07:26:00,
2013-02-23 02:31:00,34.3,27.9,30.11,SW,222,0.0,0.0,77,0.00,,,0.00,VWS V14.00,2013-02-23 07:31:00,
2013-02-23 02:36:00,34.2,28.0,30.08,SW,222,0.0,0.0,78,0.00,,,0.00,VWS V14.00,2013-02-23 07:36:00,
2013-02-23 02:41:00,34.0,27.9,30.08,SW,226,3.1,3.6,78,0.00,,,0.00,VWS V14.00,2013-02-23 07:41:00,
2013-02-23 02:46:00,33.8,27.7,30.08,SW,234,4.0,4.0,78,0.00,,,0.00,VWS V14.00,2013-02-23 07:46:00,
2013-02-23 02:51:00,33.8,27.7,30.05,SW,235,3.6,3.6,78,0.00,,,0.00,VWS V14.00,2013-02-23 07:51:00,
2013-02-23 02:57:00,33.8,28.0,30.05,SW,235,0.0,0.0,79,0.00,,,0.00,VWS V14.00,2013-02-23 07:57:00,
2013-02-23 03:02:00,33.8,28.0,30.05,SW,235,0.0,0.0,79,0.00,,,0.00,VWS V14.00,2013-02-23 08:02:00,
2013-02-23 03:07:00,34.0,28.2,30.08,SW,235,0.0,0.0,79,0.00,,,0.00,VWS V14.00,2013-02-23 08:07:00,
2013-02-23 03:12:00,34.0,28.2,30.08,SW,235,0.0,0.0,79,0.00,,,0.00,VWS V14.00,2013-02-23 08:12:00,
2013-02-23 03:17:00,34.0,28.2,30.08,SW,235,0.0,0.0,79,0.00,,,0.00,VWS V14.00,2013-02-23 08:17:00,
2013-02-23 03:22:00,34.0,28.2,30.08,SW,235,0.0,0.0,79,0.00,,,0.00,VWS V14.00,2013-02-23 08:22:00,
2013-02-23 03:27:00,34.0,28.2,30.08,SW,235,0.0,0.0,79,0.00,,,0.00,VWS V14.00,2013-02-23 08:27:00,
2013-02-23 03:32:00,34.2,28.3,30.08,SW,235,0.0,0.0,79,0.00,,,0.00,VWS V14.00,2013-02-23 08:32:00,
2013-02-23 03:37:00,34.2,28.3,30.08,SW,235,0.0,0.0,79,0.00,,,0.00,VWS V14.00,2013-02-23 08:37:00,
2013-02-23 03:42:00,34.2,28.3,30.08,SSW,200,0.0,0.0,79,0.00,,,0.00,VWS V14.00,2013-02-23 08:42:00,
2013-02-23 03:47:00,34.0,28.2,30.08,SW,221,0.0,2.7,79,0.00,,,0.00,VWS V14.00,2013-02-23 08:47:00,
2013-02-23 03:52:00,34.2,28.3,30.05,SSW,211,4.9,4.9,79,0.00,,,0.00,VWS V14.00,2013-02-23 08:52:00,
2013-02-23 03:57:00,34.0,28.2,30.05,SW,220,0.0,0.0,79,0.00,,,0.00,VWS V14.00,2013-02-23 08:57:00,
2013-02-23 04:02:00,34.0,28.2,30.05,SSW,202,2.7,3.6,79,0.00,,,0.00,VWS V14.00,2013-02-23 09:02:00,
2013-02-23 04:07:00,34.0,28.2,30.05,SW,220,0.0,2.7,79,0.00,,,0.00,VWS V14.00,2013-02-23 09:07:00,
2013-02-23 04:12:00,34.0,28.2,30.05,SSW,212,5.8,5.8,79,0.00,,,0.00,VWS V14.00,2013-02-23 09:12:00,
2013-02-23 04:17:00,33.8,28.0,30.02,SSW,210,4.0,4.9,79,0.00,,,0.00,VWS V14.00,2013-02-23 09:17:00,
2013-02-23 04:22:00,34.0,28.2,30.02,NNW,343,0.0,2.7,79,0.00,,,0.00,VWS V14.00,2013-02-23 09:22:00,
2013-02-23 04:27:00,34.0,28.2,30.02,North,353,2.7,2.7,79,0.00,,,0.00,VWS V14.00,2013-02-23 09:27:00,
2013-02-23 04:33:00,34.2,28.3,30.02,SW,227,0.0,3.1,79,0.00,,,0.00,VWS V14.00,2013-02-23 09:33:00,
2013-02-23 04:38:00,34.2,28.3,30.05,NW,318,0.0,0.0,79,0.00,,,0.00,VWS V14.00,2013-02-23 09:38:00,
2013-02-23 04:43:00,34.3,28.5,30.05,NW,318,0.0,0.0,79,0.00,,,0.00,VWS V14.00,2013-02-23 09:43:00,
2013-02-23 04:48:00,34.3,28.5,30.08,NW,318,0.0,0.0,79,0.00,,,0.00,VWS V14.00,2013-02-23 09:48:00,
2013-02-23 04:53:00,34.3,28.5,30.08,NW,318,0.0,0.0,79,0.00,,,0.00,VWS V14.00,2013-02-23 09:53:00,
2013-02-23 04:58:00,34.2,28.3,30.08,SW,221,2.7,3.6,79,0.00,,,0.00,VWS V14.00,2013-02-23 09:58:00,
2013-02-23 05:03:00,34.3,28.2,30.05,NNE,32,0.0,0.0,78,0.00,,,0.00,VWS V14.00,2013-02-23 10:03:00,
2013-02-23 05:08:00,34.3,28.2,30.05,NNE,32,0.0,0.0,78,0.00,,,0.00,VWS V14.00,2013-02-23 10:08:00,
2013-02-23 05:13:00,34.3,28.2,30.05,NNE,32,0.0,0.0,78,0.00,,,0.00,VWS V14.00,2013-02-23 10:13:00,
2013-02-23 05:18:00,34.3,28.2,30.08,NNE,32,0.0,0.0,78,0.00,,,0.00,VWS V14.00,2013-02-23 10:18:00,
2013-02-23 05:23:00,34.3,28.2,30.08,NNE,32,0.0,0.0,78,0.00,,,0.00,VWS V14.00,2013-02-23 10:23:00,
2013-02-23 05:28:00,34.3,28.2,30.08,NNE,32,0.0,0.0,78,0.00,,,0.00,VWS V14.00,2013-02-23 10:28:00,
2013-02-23 05:33:00,34.2,28.0,30.08,NNE,32,0.0,0.0,78,0.00,,,0.00,VWS V14.00,2013-02-23 10:33:00,
2013-02-23 05:38:00,34.3,28.2,30.08,NNE,32,0.0,0.0,78,0.00,,,0.00,VWS V14.00,2013-02-23 10:38:00,
2013-02-23 05:43:00,34.2,28.0,30.08,NNE,32,0.0,0.0,78,0.00,,,0.00,VWS V14.00,2013-02-23 10:43:00,
2013-02-23 05:48:00,34.2,28.0,30.08,NNE,32,0.0,0.0,78,0.00,,,0.00,VWS V14.00,2013-02-23 10:48:00,
2013-02-23 05:53:00,34.2,28.0,30.08,NNE,32,0.0,0.0,78,0.00,,,0.00,VWS V14.00,2013-02-23 10:53:00,
2013-02-23 05:58:00,34.3,28.2,30.08,NNE,32,0.0,0.0,78,0.00,,,0.00,VWS V14.00,2013-02-23 10:58:00,
2013-02-23 06:03:00,34.3,28.2,30.08,NNE,32,0.0,0.0,78,0.00,,,0.00,VWS V14.00,2013-02-23 11:03:00,
2013-02-23 06:08:00,34.3,28.2,30.08,NNE,32,0.0,0.0,78,0.00,,,0.00,VWS V14.00,2013-02-23 11:08:00,
2013-02-23 06:13:00,34.3,28.2,30.08,NNE,32,0.0,0.0,78,0.00,,,0.00,VWS V14.00,2013-02-23 11:13:00,
2013-02-23 06:18:00,34.2,28.0,30.05,NNE,32,0.0,0.0,78,0.04,,,0.04,VWS V14.00,2013-02-23 11:18:00,
2013-02-23 06:23:00,34.2,28.0,30.05,NNE,32,0.0,0.0,78,0.04,,,0.04,VWS V14.00,2013-02-23 11:23:00,
2013-02-23 06:28:00,34.2,28.0,30.05,NNE,32,0.0,0.0,78,0.04,,,0.04,VWS V14.00,2013-02-23 11:28:00,
2013-02-23 06:33:00,34.0,27.9,30.05,WSW,246,2.7,3.6,78,0.04,,,0.04,VWS V14.00,2013-02-23 11:33:00,
2013-02-23 06:38:00,34.0,28.2,30.05,WSW,246,0.0,0.0,79,0.04,,,0.04,VWS V14.00,2013-02-23 11:38:00,
2013-02-23 06:43:00,34.0,28.2,30.05,WSW,246,2.7,2.7,79,0.04,,,0.04,VWS V14.00,2013-02-23 11:43:00,
2013-02-23 06:48:00,34.0,28.2,30.02,WSW,242,2.7,2.7,79,0.04,,,0.04,VWS V14.00,2013-02-23 11:48:00,
2013-02-23 06:53:00,33.8,28.3,30.02,WSW,242,2.7,3.1,80,0.04,,,0.04,VWS V14.00,2013-02-23 11:53:00,
2013-02-23 06:58:00,33.8,28.3,30.02,SW,228,3.1,4.0,80,0.04,,,0.04,VWS V14.00,2013-02-23 11:58:00,
2013-02-23 07:03:00,33.8,28.6,30.02,SW,233,2.2,2.2,81,0.08,,,0.08,VWS V14.00,2013-02-23 12:03:00,
2013-02-23 07:08:00,33.8,28.9,30.02,WSW,241,4.0,4.0,82,0.08,,,0.08,VWS V14.00,2013-02-23 12:08:00,
2013-02-23 07:13:00,33.8,28.9,30.02,SW,224,0.0,3.1,82,0.08,,,0.08,VWS V14.00,2013-02-23 12:13:00,
2013-02-23 07:18:00,33.8,28.9,30.02,SW,224,0.0,0.0,82,0.04,,,0.08,VWS V14.00,2013-02-23 12:18:00,
2013-02-23 07:23:00,33.8,29.2,30.02,SW,224,0.0,0.0,83,0.04,,,0.08,VWS V14.00,2013-02-23 12:23:00,
2013-02-23 07:28:00,34.0,29.4,30.02,SW,224,2.7,2.7,83,0.04,,,0.08,VWS V14.00,2013-02-23 12:28:00,
2013-02-23 07:33:00,34.0,29.4,30.02,SW,224,0.0,0.0,83,0.04,,,0.08,VWS V14.00,2013-02-23 12:33:00,
2013-02-23 07:38:00,34.0,29.4,30.02,SW,224,0.0,0.0,83,0.04,,,0.08,VWS V14.00,2013-02-23 12:38:00,
2013-02-23 07:43:00,34.2,29.5,30.02,SW,224,2.2,2.7,83,0.04,,,0.08,VWS V14.00,2013-02-23 12:43:00,
2013-02-23 07:48:00,34.2,29.5,30.02,SW,218,0.0,0.0,83,0.04,,,0.08,VWS V14.00,2013-02-23 12:48:00,
2013-02-23 07:53:00,34.0,29.4,30.02,SW,228,2.7,3.6,83,0.04,,,0.08,VWS V14.00,2013-02-23 12:53:00,
2013-02-23 07:59:00,34.0,29.4,30.02,SW,234,0.0,0.0,83,0.04,,,0.08,VWS V14.00,2013-02-23 12:59:00,
2013-02-23 08:04:00,34.2,29.2,29.99,SW,214,0.0,0.0,82,0.00,,,0.08,VWS V14.00,2013-02-23 13:04:00,
2013-02-23 08:09:00,34.2,29.2,29.99,SW,214,0.0,0.0,82,0.00,,,0.08,VWS V14.00,2013-02-23 13:09:00,
2013-02-23 08:14:00,34.3,29.4,29.99,SW,214,0.0,0.0,82,0.00,,,0.08,VWS V14.00,2013-02-23 13:14:00,
2013-02-23 08:19:00,34.3,29.4,30.02,SW,229,0.0,0.0,82,0.00,,,0.08,VWS V14.00,2013-02-23 13:19:00,
2013-02-23 08:24:00,34.5,29.6,30.02,SW,229,0.0,0.0,82,0.00,,,0.08,VWS V14.00,2013-02-23 13:24:00,
2013-02-23 08:29:00,34.7,29.8,30.02,SW,229,0.0,0.0,82,0.00,,,0.08,VWS V14.00,2013-02-23 13:29:00,
2013-02-23 08:34:00,34.9,30.0,30.02,SW,229,0.0,0.0,82,0.00,,,0.08,VWS V14.00,2013-02-23 13:34:00,
2013-02-23 08:39:00,34.9,30.0,30.02,SW,229,0.0,0.0,82,0.00,,,0.08,VWS V14.00,2013-02-23 13:39:00,
2013-02-23 08:44:00,34.9,30.0,30.02,SW,229,0.0,0.0,82,0.00,,,0.08,VWS V14.00,2013-02-23 13:44:00,
2013-02-23 08:49:00,34.9,30.0,30.02,SW,229,0.0,0.0,82,0.00,,,0.08,VWS V14.00,2013-02-23 13:49:00,
2013-02-23 08:54:00,34.9,30.0,30.02,SW,229,0.0,0.0,82,0.04,,,0.12,VWS V14.00,2013-02-23 13:54:00,
2013-02-23 08:59:00,35.1,30.1,30.02,SW,229,0.0,0.0,82,0.04,,,0.12,VWS V14.00,2013-02-23 13:59:00,
2013-02-23 09:04:00,35.1,29.8,30.02,SW,229,0.0,0.0,81,0.04,,,0.12,VWS V14.00,2013-02-23 14:04:00,
2013-02-23 09:09:00,35.1,29.8,30.02,SW,229,0.0,0.0,81,0.04,,,0.12,VWS V14.00,2013-02-23 14:09:00,
2013-02-23 09:14:00,35.1,29.8,30.02,SW,229,0.0,0.0,81,0.04,,,0.12,VWS V14.00,2013-02-23 14:14:00,
2013-02-23 09:19:00,35.2,30.0,30.02,SW,229,0.0,0.0,81,0.04,,,0.12,VWS V14.00,2013-02-23 14:19:00,
2013-02-23 09:24:00,35.2,30.0,30.02,SW,229,3.1,3.6,81,0.04,,,0.12,VWS V14.00,2013-02-23 14:24:00,
2013-02-23 09:29:00,35.2,29.7,30.02,SW,229,3.1,3.1,80,0.04,,,0.12,VWS V14.00,2013-02-23 14:29:00,
2013-02-23 09:34:00,35.4,29.9,29.99,WSW,238,2.7,3.1,80,0.04,,,0.12,VWS V14.00,2013-02-23 14:34:00,
2013-02-23 09:39:00,35.6,30.0,29.99,SW,228,3.1,3.1,80,0.04,,,0.12,VWS V14.00,2013-02-23 14:39:00,
2013-02-23 09:44:00,35.6,30.0,29.99,SW,233,0.0,3.1,80,0.04,,,0.12,VWS V14.00,2013-02-23 14:44:00,
2013-02-23 09:49:00,35.8,29.9,29.99,SW,233,0.0,0.0,79,0.04,,,0.12,VWS V14.00,2013-02-23 14:49:00,
2013-02-23 09:54:00,36.0,30.1,29.99,SW,233,0.0,0.0,79,0.00,,,0.12,VWS V14.00,2013-02-23 14:54:00,
2013-02-23 09:59:00,36.1,30.3,29.99,SW,233,0.0,0.0,79,0.00,,,0.12,VWS V14.00,2013-02-23 14:59:00,
2013-02-23 10:04:00,36.1,30.3,29.99,SW,233,0.0,0.0,79,0.00,,,0.12,VWS V14.00,2013-02-23 15:04:00,
2013-02-23 10:09:00,36.3,30.4,29.99,SW,224,0.0,0.0,79,0.00,,,0.12,VWS V14.00,2013-02-23 15:09:00,
2013-02-23 10:14:00,36.5,30.6,29.99,SW,224,0.0,0.0,79,0.00,,,0.12,VWS V14.00,2013-02-23 15:14:00,
2013-02-23 10:19:00,36.7,30.8,29.99,SW,224,0.0,0.0,79,0.00,,,0.12,VWS V14.00,2013-02-23 15:19:00,
2013-02-23 10:24:00,36.9,31.0,29.99,SW,224,0.0,0.0,79,0.00,,,0.12,VWS V14.00,2013-02-23 15:24:00,
2013-02-23 10:29:00,36.9,31.0,29.99,SW,224,0.0,0.0,79,0.00,,,0.12,VWS V14.00,2013-02-23 15:29:00,
2013-02-23 10:34:00,37.0,31.1,29.99,SW,224,0.0,0.0,79,0.00,,,0.12,VWS V14.00,2013-02-23 15:34:00,
2013-02-23 10:39:00,37.2,31.3,29.99,SW,224,0.0,0.0,79,0.00,,,0.12,VWS V14.00,2013-02-23 15:39:00,
2013-02-23 10:44:00,37.4,31.2,29.99,SW,224,0.0,0.0,78,0.00,,,0.12,VWS V14.00,2013-02-23 15:44:00,
2013-02-23 10:49:00,37.6,31.4,29.99,SW,224,0.0,0.0,78,0.00,,,0.12,VWS V14.00,2013-02-23 15:49:00,
2013-02-23 10:54:00,37.8,31.5,29.99,SW,224,0.0,0.0,78,0.00,,,0.12,VWS V14.00,2013-02-23 15:54:00,
2013-02-23 10:59:00,37.9,31.7,29.99,East,79,0.0,0.0,78,0.00,,,0.12,VWS V14.00,2013-02-23 15:59:00,
2013-02-23 11:04:00,37.9,31.7,29.99,East,79,0.0,0.0,78,0.00,,,0.12,VWS V14.00,2013-02-23 16:04:00,
2013-02-23 11:09:00,37.9,31.4,29.99,East,79,0.0,0.0,77,0.00,,,0.12,VWS V14.00,2013-02-23 16:09:00,
2013-02-23 11:14:00,37.9,31.4,29.99,East,79,0.0,0.0,77,0.00,,,0.12,VWS V14.00,2013-02-23 16:14:00,
2013-02-23 11:19:00,38.1,31.6,29.99,East,79,0.0,0.0,77,0.00,,,0.12,VWS V14.00,2013-02-23 16:19:00,
2013-02-23 11:24:00,38.1,31.6,29.99,East,79,0.0,0.0,77,0.00,,,0.12,VWS V14.00,2013-02-23 16:24:00,
2013-02-23 11:29:00,38.3,31.7,29.99,East,79,0.0,0.0,77,0.00,,,0.12,VWS V14.00,2013-02-23 16:29:00,
2013-02-23 11:34:00,38.5,31.9,29.99,East,79,0.0,0.0,77,0.00,,,0.12,VWS V14.00,2013-02-23 16:34:00,
2013-02-23 11:39:00,38.5,32.2,29.99,East,79,0.0,0.0,78,0.00,,,0.12,VWS V14.00,2013-02-23 16:39:00,
2013-02-23 11:44:00,38.7,32.4,29.99,East,79,0.0,0.0,78,0.00,,,0.12,VWS V14.00,2013-02-23 16:44:00,
2013-02-23 11:49:00,38.7,32.1,29.96,East,79,0.0,0.0,77,0.00,,,0.12,VWS V14.00,2013-02-23 16:49:00,
2013-02-23 11:54:00,38.8,32.3,29.96,East,79,0.0,0.0,77,0.00,,,0.12,VWS V14.00,2013-02-23 16:54:00,
2013-02-23 11:59:00,38.8,32.3,29.96,East,79,0.0,0.0,77,0.00,,,0.12,VWS V14.00,2013-02-23 16:59:00,
2013-02-23 12:04:00,39.2,32.6,29.96,East,79,0.0,0.0,77,0.00,,,0.12,VWS V14.00,2013-02-23 17:04:00,
2013-02-23 12:09:00,39.4,32.8,29.96,East,79,0.0,0.0,77,0.00,,,0.12,VWS V14.00,2013-02-23 17:09:00,
2013-02-23 12:14:00,39.7,33.1,29.96,East,79,0.0,0.0,77,0.00,,,0.12,VWS V14.00,2013-02-23 17:14:00,
2013-02-23 12:19:00,40.1,33.5,29.96,East,79,0.0,0.0,77,0.00,,,0.12,VWS V14.00,2013-02-23 17:19:00,
2013-02-23 12:24:00,40.5,33.8,29.96,East,79,0.0,0.0,77,0.00,,,0.12,VWS V14.00,2013-02-23 17:24:00,
2013-02-23 12:29:00,40.6,34.0,29.96,East,79,0.0,0.0,77,0.00,,,0.12,VWS V14.00,2013-02-23 17:29:00,
2013-02-23 12:34:00,40.8,33.8,29.96,SE,139,0.0,0.0,76,0.00,,,0.12,VWS V14.00,2013-02-23 17:34:00,
2013-02-23 12:39:00,41.0,34.0,29.96,SE,139,0.0,0.0,76,0.00,,,0.12,VWS V14.00,2013-02-23 17:39:00,
2013-02-23 12:44:00,41.0,34.0,29.96,SE,139,0.0,0.0,76,0.00,,,0.12,VWS V14.00,2013-02-23 17:44:00,
2013-02-23 12:49:00,41.2,33.9,29.93,ESE,123,0.0,0.0,75,0.00,,,0.12,VWS V14.00,2013-02-23 17:49:00,
2013-02-23 12:55:00,41.4,33.7,29.93,ESE,123,0.0,0.0,74,0.00,,,0.12,VWS V14.00,2013-02-23 17:55:00,
2013-02-23 13:00:00,41.5,33.9,29.93,SE,130,0.0,0.0,74,0.00,,,0.12,VWS V14.00,2013-02-23 18:00:00,
2013-02-23 13:05:00,41.7,34.1,29.93,SE,133,0.0,0.0,74,0.00,,,0.12,VWS V14.00,2013-02-23 18:05:00,
2013-02-23 13:10:00,41.7,33.7,29.93,East,84,0.0,4.0,73,0.00,,,0.12,VWS V14.00,2013-02-23 18:10:00,
2013-02-23 13:15:00,41.7,33.7,29.93,SE,124,0.0,0.0,73,0.00,,,0.12,VWS V14.00,2013-02-23 18:15:00,
2013-02-23 13:20:00,41.9,33.5,29.93,SE,131,0.0,0.0,72,0.00,,,0.12,VWS V14.00,2013-02-23 18:20:00,
2013-02-23 13:25:00,42.3,34.2,29.93,SE,131,0.0,0.0,73,0.00,,,0.12,VWS V14.00,2013-02-23 18:25:00,
2013-02-23 13:30:00,42.6,34.6,29.93,SE,143,0.0,0.0,73,0.00,,,0.12,VWS V14.00,2013-02-23 18:30:00,
2013-02-23 13:35:00,42.8,34.4,29.93,SE,132,0.0,0.0,72,0.00,,,0.12,VWS V14.00,2013-02-23 18:35:00,
2013-02-23 13:40:00,43.0,34.2,29.93,East,98,0.0,0.0,71,0.00,,,0.12,VWS V14.00,2013-02-23 18:40:00,
2013-02-23 13:45:00,43.3,34.2,29.93,ESE,115,0.0,0.0,70,0.00,,,0.12,VWS V14.00,2013-02-23 18:45:00,
2013-02-23 13:50:00,43.7,34.6,29.90,ESE,115,0.0,0.0,70,0.00,,,0.12,VWS V14.00,2013-02-23 18:50:00,
2013-02-23 13:55:00,44.1,34.6,29.90,ESE,115,0.0,0.0,69,0.00,,,0.12,VWS V14.00,2013-02-23 18:55:00,
2013-02-23 14:00:00,44.1,33.8,29.90,SE,131,0.0,0.0,67,0.00,,,0.12,VWS V14.00,2013-02-23 19:00:00,
2013-02-23 14:05:00,44.2,34.0,29.93,SE,131,0.0,0.0,67,0.00,,,0.12,VWS V14.00,2013-02-23 19:05:00,
2013-02-23 14:10:00,44.6,34.0,29.93,SE,131,0.0,0.0,66,0.00,,,0.12,VWS V14.00,2013-02-23 19:10:00,
2013-02-23 14:15:00,44.8,33.8,29.93,SE,131,0.0,0.0,65,0.00,,,0.12,VWS V14.00,2013-02-23 19:15:00,
2013-02-23 14:20:00,44.8,33.4,29.90,SE,131,0.0,0.0,64,0.00,,,0.12,VWS V14.00,2013-02-23 19:20:00,
2013-02-23 14:25:00,45.1,33.7,29.90,SE,131,0.0,0.0,64,0.00,,,0.12,VWS V14.00,2013-02-23 19:25:00,
2013-02-23 14:30:00,45.3,33.5,29.90,SE,131,0.0,0.0,63,0.00,,,0.12,VWS V14.00,2013-02-23 19:30:00,
2013-02-23 14:35:00,45.5,33.7,29.90,SE,131,0.0,0.0,63,0.00,,,0.12,VWS V14.00,2013-02-23 19:35:00,
2013-02-23 14:40:00,45.7,33.8,29.90,SE,131,0.0,0.0,63,0.00,,,0.12,VWS V14.00,2013-02-23 19:40:00,
2013-02-23 14:45:00,45.9,34.0,29.90,SE,131,0.0,0.0,63,0.00,,,0.12,VWS V14.00,2013-02-23 19:45:00,
2013-02-23 14:50:00,45.9,32.8,29.90,SE,131,0.0,0.0,60,0.00,,,0.12,VWS V14.00,2013-02-23 19:50:00,
2013-02-23 14:55:00,45.9,32.4,29.90,SE,131,0.0,0.0,59,0.00,,,0.12,VWS V14.00,2013-02-23 19:55:00,
2013-02-23 15:00:00,46.0,32.1,29.90,SE,131,0.0,0.0,58,0.00,,,0.12,VWS V14.00,2013-02-23 20:00:00,
2013-02-23 15:05:00,46.2,32.7,29.90,SE,131,0.0,0.0,59,0.00,,,0.12,VWS V14.00,2013-02-23 20:05:00,
2013-02-23 15:10:00,46.2,32.7,29.90,SE,131,0.0,0.0,59,0.00,,,0.12,VWS V14.00,2013-02-23 20:10:00,
2013-02-23 15:15:00,46.4,32.4,29.90,SE,131,0.0,0.0,58,0.00,,,0.12,VWS V14.00,2013-02-23 20:15:00,
2013-02-23 15:20:00,46.8,32.8,29.87,SE,131,0.0,0.0,58,0.00,,,0.12,VWS V14.00,2013-02-23 20:20:00,
2013-02-23 15:25:00,46.8,32.8,29.87,SE,131,0.0,0.0,58,0.00,,,0.12,VWS V14.00,2013-02-23 20:25:00,
2013-02-23 15:30:00,46.8,32.3,29.87,SE,131,0.0,0.0,57,0.00,,,0.12,VWS V14.00,2013-02-23 20:30:00,
2013-02-23 15:35:00,46.8,32.3,29.87,SE,131,0.0,0.0,57,0.00,,,0.12,VWS V14.00,2013-02-23 20:35:00,
2013-02-23 15:41:00,46.8,32.3,29.87,SE,131,0.0,0.0,57,0.00,,,0.12,VWS V14.00,2013-02-23 20:41:00,
2013-02-23 15:46:00,46.8,32.3,29.87,SE,131,0.0,0.0,57,0.00,,,0.12,VWS V14.00,2013-02-23 20:46:00,
2013-02-23 15:51:00,46.9,32.5,29.87,SE,131,0.0,0.0,57,0.00,,,0.12,VWS V14.00,2013-02-23 20:51:00,
2013-02-23 15:56:00,46.9,32.1,29.87,SE,136,0.0,0.0,56,0.00,,,0.12,VWS V14.00,2013-02-23 20:56:00,
2013-02-23 16:01:00,46.9,32.1,29.87,SSE,148,0.0,0.0,56,0.00,,,0.12,VWS V14.00,2013-02-23 21:01:00,
2013-02-23 16:06:00,46.9,32.1,29.87,SE,146,0.0,0.0,56,0.00,,,0.12,VWS V14.00,2013-02-23 21:06:00,
2013-02-23 16:11:00,47.1,32.7,29.87,SE,146,0.0,0.0,57,0.00,,,0.12,VWS V14.00,2013-02-23 21:11:00,
2013-02-23 16:16:00,47.1,32.7,29.87,ESE,120,0.0,0.0,57,0.00,,,0.12,VWS V14.00,2013-02-23 21:16:00,
2013-02-23 16:21:00,47.1,32.2,29.84,ESE,120,0.0,0.0,56,0.00,,,0.12,VWS V14.00,2013-02-23 21:21:00,
2013-02-23 16:26:00,47.1,32.7,29.84,ESE,106,0.0,0.0,57,0.00,,,0.12,VWS V14.00,2013-02-23 21:26:00,
2013-02-23 16:31:00,47.1,32.2,29.84,ESE,106,0.0,0.0,56,0.00,,,0.12,VWS V14.00,2013-02-23 21:31:00,
2013-02-23 16:36:00,47.1,32.7,29.87,SE,139,0.0,0.0,57,0.00,,,0.12,VWS V14.00,2013-02-23 21:36:00,
2013-02-23 16:41:00,47.1,32.7,29.87,ENE,61,0.0,0.0,57,0.00,,,0.12,VWS V14.00,2013-02-23 21:41:00,
2013-02-23 16:46:00,47.1,32.7,29.87,ESE,108,0.0,0.0,57,0.00,,,0.12,VWS V14.00,2013-02-23 21:46:00,
2013-02-23 16:51:00,46.9,32.5,29.87,SSE,150,0.0,0.0,57,0.00,,,0.12,VWS V14.00,2013-02-23 21:51:00,
2013-02-23 16:56:00,46.9,33.0,29.87,SSE,151,0.0,0.0,58,0.00,,,0.12,VWS V14.00,2013-02-23 21:56:00,
2013-02-23 17:01:00,46.8,32.8,29.87,SSE,151,0.0,0.0,58,0.00,,,0.12,VWS V14.00,2013-02-23 22:01:00,
2013-02-23 17:06:00,46.8,33.2,29.87,SSE,151,0.0,0.0,59,0.00,,,0.12,VWS V14.00,2013-02-23 22:06:00,
2013-02-23 17:11:00,46.8,33.2,29.87,SSE,151,0.0,0.0,59,0.00,,,0.12,VWS V14.00,2013-02-23 22:11:00,
2013-02-23 17:16:00,46.6,33.0,29.87,SSE,151,0.0,0.0,59,0.00,,,0.12,VWS V14.00,2013-02-23 22:16:00,
2013-02-23 17:21:00,46.4,32.9,29.87,SSE,151,0.0,0.0,59,0.00,,,0.12,VWS V14.00,2013-02-23 22:21:00,
2013-02-23 17:26:00,46.4,32.9,29.87,SSE,151,0.0,0.0,59,0.00,,,0.12,VWS V14.00,2013-02-23 22:26:00,
2013-02-23 17:31:00,46.2,33.1,29.87,SSE,151,0.0,0.0,60,0.00,,,0.12,VWS V14.00,2013-02-23 22:31:00,
2013-02-23 17:36:00,46.0,33.0,29.84,SSE,151,0.0,0.0,60,0.00,,,0.12,VWS V14.00,2013-02-23 22:36:00,
2013-02-23 17:41:00,46.0,33.4,29.84,SSE,151,0.0,0.0,61,0.00,,,0.12,VWS V14.00,2013-02-23 22:41:00,
2013-02-23 17:47:00,46.0,33.4,29.84,SSE,151,0.0,0.0,61,0.00,,,0.12,VWS V14.00,2013-02-23 22:47:00,
2013-02-23 17:52:00,45.9,33.2,29.84,SSE,151,0.0,0.0,61,0.00,,,0.12,VWS V14.00,2013-02-23 22:52:00,
2013-02-23 17:57:00,45.5,32.8,29.84,SSE,151,0.0,0.0,61,0.00,,,0.12,VWS V14.00,2013-02-23 22:57:00,
2013-02-23 18:02:00,45.3,32.7,29.84,SSE,151,0.0,0.0,61,0.00,,,0.12,VWS V14.00,2013-02-23 23:02:00,
2013-02-23 18:07:00,45.3,33.1,29.84,SSE,151,0.0,0.0,62,0.00,,,0.12,VWS V14.00,2013-02-23 23:07:00,
2013-02-23 18:12:00,45.1,32.9,29.84,SSE,151,0.0,0.0,62,0.00,,,0.12,VWS V14.00,2013-02-23 23:12:00,
2013-02-23 18:17:00,45.1,32.9,29.84,SSE,151,0.0,0.0,62,0.00,,,0.12,VWS V14.00,2013-02-23 23:17:00,
2013-02-23 18:22:00,45.1,33.3,29.84,SSE,151,0.0,0.0,63,0.00,,,0.12,VWS V14.00,2013-02-23 23:22:00,
2013-02-23 18:27:00,45.0,33.1,29.84,SSE,151,0.0,0.0,63,0.00,,,0.12,VWS V14.00,2013-02-23 23:27:00,
2013-02-23 18:32:00,44.6,32.8,29.84,SSE,151,0.0,0.0,63,0.00,,,0.12,VWS V14.00,2013-02-23 23:32:00,
2013-02-23 18:37:00,44.4,33.0,29.84,SSE,151,0.0,0.0,64,0.00,,,0.12,VWS V14.00,2013-02-23 23:37:00,
2013-02-23 18:42:00,44.2,32.8,29.84,SSE,151,0.0,0.0,64,0.00,,,0.12,VWS V14.00,2013-02-23 23:42:00,
2013-02-23 18:47:00,44.1,33.1,29.84,SSE,151,0.0,0.0,65,0.00,,,0.12,VWS V14.00,2013-02-23 23:47:00,
2013-02-23 18:52:00,43.9,32.9,29.84,SSE,151,0.0,0.0,65,0.00,,,0.12,VWS V14.00,2013-02-23 23:52:00,
2013-02-23 18:57:00,43.7,33.1,29.84,SSE,151,0.0,0.0,66,0.00,,,0.12,VWS V14.00,2013-02-23 23:57:00,
2013-02-23 19:02:00,43.5,32.9,29.84,SSE,151,0.0,0.0,66,0.00,,,0.12,VWS V14.00,2013-02-24 00:02:00,
2013-02-23 19:07:00,43.5,33.3,29.81,SSE,151,0.0,0.0,67,0.00,,,0.12,VWS V14.00,2013-02-24 00:07:00,
2013-02-23 19:12:00,43.5,33.3,29.81,SSE,151,0.0,0.0,67,0.00,,,0.12,VWS V14.00,2013-02-24 00:12:00,
2013-02-23 19:17:00,43.3,33.1,29.81,SSE,151,0.0,0.0,67,0.00,,,0.12,VWS V14.00,2013-02-24 00:17:00,
2013-02-23 19:22:00,43.3,33.5,29.81,SSE,150,0.0,0.0,68,0.00,,,0.12,VWS V14.00,2013-02-24 00:22:00,
2013-02-23 19:27:00,43.3,33.5,29.81,SSE,151,0.0,0.0,68,0.00,,,0.12,VWS V14.00,2013-02-24 00:27:00,
2013-02-23 19:32:00,43.3,33.5,29.81,SSE,151,0.0,0.0,68,0.00,,,0.12,VWS V14.00,2013-02-24 00:32:00,
2013-02-23 19:37:00,43.2,33.3,29.81,SSE,151,0.0,0.0,68,0.00,,,0.12,VWS V14.00,2013-02-24 00:37:00,
2013-02-23 19:42:00,43.2,33.7,29.81,SSE,151,0.0,0.0,69,0.00,,,0.12,VWS V14.00,2013-02-24 00:42:00,
2013-02-23 19:47:00,43.2,33.7,29.81,SSE,151,0.0,0.0,69,0.00,,,0.12,VWS V14.00,2013-02-24 00:47:00,
2013-02-23 19:52:00,43.3,33.9,29.81,SSE,151,0.0,0.0,69,0.00,,,0.12,VWS V14.00,2013-02-24 00:52:00,
2013-02-23 19:57:00,43.5,34.4,29.81,SSE,151,0.0,0.0,70,0.00,,,0.12,VWS V14.00,2013-02-24 00:57:00,
2013-02-23 20:02:00,43.5,34.4,29.81,SSE,151,0.0,0.0,70,0.00,,,0.12,VWS V14.00,2013-02-24 01:02:00,
2013-02-23 20:07:00,43.5,34.4,29.81,SSE,150,0.0,0.0,70,0.00,,,0.12,VWS V14.00,2013-02-24 01:07:00,
2013-02-23 20:12:00,43.5,34.4,29.81,SSE,151,0.0,0.0,70,0.00,,,0.12,VWS V14.00,2013-02-24 01:12:00,
2013-02-23 20:17:00,43.5,34.4,29.81,SSE,151,0.0,0.0,70,0.00,,,0.12,VWS V14.00,2013-02-24 01:17:00,
2013-02-23 20:22:00,43.3,34.2,29.81,ENE,64,0.0,0.0,70,0.00,,,0.12,VWS V14.00,2013-02-24 01:22:00,
2013-02-23 20:28:00,43.3,34.2,29.81,ENE,64,0.0,0.0,70,0.00,,,0.12,VWS V14.00,2013-02-24 01:28:00,
2013-02-23 20:33:00,43.3,34.2,29.81,ENE,64,0.0,0.0,70,0.00,,,0.12,VWS V14.00,2013-02-24 01:33:00,
2013-02-23 20:38:00,43.3,34.6,29.81,ENE,64,0.0,0.0,71,0.00,,,0.12,VWS V14.00,2013-02-24 01:38:00,
2013-02-23 20:43:00,43.3,34.6,29.81,ENE,64,0.0,0.0,71,0.00,,,0.12,VWS V14.00,2013-02-24 01:43:00,
2013-02-23 20:48:00,43.2,34.4,29.81,ENE,64,0.0,0.0,71,0.00,,,0.12,VWS V14.00,2013-02-24 01:48:00,
2013-02-23 20:53:00,43.2,34.4,29.81,ENE,64,0.0,0.0,71,0.00,,,0.12,VWS V14.00,2013-02-24 01:53:00,
2013-02-23 20:58:00,43.2,34.4,29.81,ENE,64,0.0,0.0,71,0.00,,,0.12,VWS V14.00,2013-02-24 01:58:00,
2013-02-23 21:03:00,43.2,34.4,29.81,ENE,64,0.0,0.0,71,0.00,,,0.12,VWS V14.00,2013-02-24 02:03:00,
2013-02-23 21:08:00,43.2,34.8,29.81,ENE,64,0.0,0.0,72,0.00,,,0.12,VWS V14.00,2013-02-24 02:08:00,
2013-02-23 21:13:00,43.3,34.9,29.81,ENE,64,0.0,0.0,72,0.00,,,0.12,VWS V14.00,2013-02-24 02:13:00,
2013-02-23 21:18:00,43.5,35.1,29.81,NE,38,0.0,0.0,72,0.00,,,0.12,VWS V14.00,2013-02-24 02:18:00,
2013-02-23 21:23:00,43.5,35.1,29.81,NE,38,0.0,0.0,72,0.00,,,0.12,VWS V14.00,2013-02-24 02:23:00,
2013-02-23 21:28:00,43.5,35.1,29.81,NE,41,0.0,0.0,72,0.00,,,0.12,VWS V14.00,2013-02-24 02:28:00,
2013-02-23 21:33:00,43.3,34.9,29.81,NE,41,0.0,0.0,72,0.00,,,0.12,VWS V14.00,2013-02-24 02:33:00,
2013-02-23 21:38:00,43.3,34.9,29.81,NE,41,0.0,0.0,72,0.00,,,0.12,VWS V14.00,2013-02-24 02:38:00,
2013-02-23 21:43:00,43.3,34.9,29.81,NE,41,0.0,0.0,72,0.00,,,0.12,VWS V14.00,2013-02-24 02:43:00,
2013-02-23 21:48:00,43.3,34.9,29.81,NE,41,0.0,0.0,72,0.00,,,0.12,VWS V14.00,2013-02-24 02:48:00,
2013-02-23 21:53:00,43.2,34.8,29.81,NE,41,0.0,0.0,72,0.00,,,0.12,VWS V14.00,2013-02-24 02:53:00,
2013-02-23 21:58:00,43.0,34.6,29.81,NE,41,0.0,0.0,72,0.00,,,0.12,VWS V14.00,2013-02-24 02:58:00,
2013-02-23 22:03:00,43.0,34.6,29.81,NE,41,0.0,0.0,72,0.00,,,0.12,VWS V14.00,2013-02-24 03:03:00,
2013-02-23 22:08:00,43.0,34.6,29.81,NE,41,0.0,0.0,72,0.00,,,0.12,VWS V14.00,2013-02-24 03:08:00,
2013-02-23 22:13:00,43.0,34.9,29.81,NE,41,0.0,0.0,73,0.00,,,0.12,VWS V14.00,2013-02-24 03:13:00,
2013-02-23 22:18:00,43.0,34.9,29.81,NE,41,0.0,0.0,73,0.00,,,0.12,VWS V14.00,2013-02-24 03:18:00,
2013-02-23 22:23:00,42.8,34.8,29.81,NE,41,0.0,0.0,73,0.00,,,0.12,VWS V14.00,2013-02-24 03:23:00,
2013-02-23 22:29:00,42.8,34.8,29.81,NE,41,0.0,0.0,73,0.00,,,0.12,VWS V14.00,2013-02-24 03:29:00,
2013-02-23 22:34:00,43.0,34.9,29.81,NE,41,0.0,0.0,73,0.00,,,0.12,VWS V14.00,2013-02-24 03:34:00,
2013-02-23 22:39:00,43.0,34.9,29.81,NE,41,0.0,0.0,73,0.00,,,0.12,VWS V14.00,2013-02-24 03:39:00,
2013-02-23 22:44:00,42.8,34.8,29.81,NE,41,0.0,0.0,73,0.00,,,0.12,VWS V14.00,2013-02-24 03:44:00,
2013-02-23 22:49:00,42.8,35.1,29.81,NE,41,0.0,0.0,74,0.00,,,0.12,VWS V14.00,2013-02-24 03:49:00,
2013-02-23 22:54:00,43.0,35.3,29.81,NE,41,0.0,0.0,74,0.00,,,0.12,VWS V14.00,2013-02-24 03:54:00,
2013-02-23 22:59:00,43.0,35.3,29.81,NE,41,0.0,0.0,74,0.00,,,0.12,VWS V14.00,2013-02-24 03:59:00,
2013-02-23 23:04:00,43.0,35.3,29.81,NE,41,0.0,0.0,74,0.00,,,0.12,VWS V14.00,2013-02-24 04:04:00,
2013-02-23 23:09:00,43.2,35.5,29.81,NE,41,0.0,0.0,74,0.00,,,0.12,VWS V14.00,2013-02-24 04:09:00,
2013-02-23 23:14:00,43.2,35.5,29.81,NE,41,0.0,0.0,74,0.00,,,0.12,VWS V14.00,2013-02-24 04:14:00,
2013-02-23 23:19:00,43.3,35.6,29.81,NE,41,0.0,0.0,74,0.00,,,0.12,VWS V14.00,2013-02-24 04:19:00,
2013-02-23 23:24:00,43.2,35.5,29.81,NE,41,0.0,0.0,74,0.00,,,0.12,VWS V14.00,2013-02-24 04:24:00,
2013-02-23 23:29:00,43.2,35.5,29.81,NE,41,0.0,0.0,74,0.00,,,0.12,VWS V14.00,2013-02-24 04:29:00,
2013-02-23 23:34:00,43.2,35.5,29.81,NE,41,0.0,0.0,74,0.00,,,0.12,VWS V14.00,2013-02-24 04:34:00,
2013-02-23 23:39:00,43.2,35.8,29.81,NE,41,0.0,0.0,75,0.00,,,0.12,VWS V14.00,2013-02-24 04:39:00,
2013-02-23 23:44:00,43.2,35.8,29.81,NE,41,0.0,0.0,75,0.00,,,0.12,VWS V14.00,2013-02-24 04:44:00,
2013-02-23 23:49:00,43.2,35.8,29.81,NE,41,0.0,0.0,75,0.00,,,0.12,VWS V14.00,2013-02-24 04:49:00,
2013-02-23 23:54:00,43.2,35.8,29.81,NE,41,0.0,0.0,75,0.00,,,0.12,VWS V14.00,2013-02-24 04:54:00,
2013-02-23 23:59:00,43.2,35.8,29.81,NE,41,0.0,0.0,75,0.00,,,0.12,VWS V14.00,2013-02-24 04:59:00,